地図

経路データ

SID SEASON NUMBER BASIN SUBBASIN NAME ISO_TIME NATURE LAT LON WMO_WIND WMO_PRES WMO_AGENCY TRACK_TYPE DIST2LAND LANDFALL IFLAG USA_AGENCY USA_ATCF_ID USA_LAT USA_LON USA_RECORD USA_STATUS USA_WIND USA_PRES USA_SSHS USA_R34_NE USA_R34_SE USA_R34_SW USA_R34_NW USA_R50_NE USA_R50_SE USA_R50_SW USA_R50_NW USA_R64_NE USA_R64_SE USA_R64_SW USA_R64_NW USA_POCI USA_ROCI USA_RMW USA_EYE TOKYO_LAT TOKYO_LON TOKYO_GRADE TOKYO_WIND TOKYO_PRES TOKYO_R50_DIR TOKYO_R50_LONG TOKYO_R50_SHORT TOKYO_R30_DIR TOKYO_R30_LONG TOKYO_R30_SHORT TOKYO_LAND CMA_LAT CMA_LON CMA_CAT CMA_WIND CMA_PRES HKO_LAT HKO_LON HKO_CAT HKO_WIND HKO_PRES NEWDELHI_LAT NEWDELHI_LON NEWDELHI_GRADE NEWDELHI_WIND NEWDELHI_PRES NEWDELHI_CI NEWDELHI_DP NEWDELHI_POCI REUNION_LAT REUNION_LON REUNION_TYPE REUNION_WIND REUNION_PRES REUNION_TNUM REUNION_CI REUNION_RMW REUNION_R34_NE REUNION_R34_SE REUNION_R34_SW REUNION_R34_NW REUNION_R50_NE REUNION_R50_SE REUNION_R50_SW REUNION_R50_NW REUNION_R64_NE REUNION_R64_SE REUNION_R64_SW REUNION_R64_NW BOM_LAT BOM_LON BOM_TYPE BOM_WIND BOM_PRES BOM_TNUM BOM_CI BOM_RMW BOM_R34_NE BOM_R34_SE BOM_R34_SW BOM_R34_NW BOM_R50_NE BOM_R50_SE BOM_R50_SW BOM_R50_NW BOM_R64_NE BOM_R64_SE BOM_R64_SW BOM_R64_NW BOM_ROCI BOM_POCI BOM_EYE BOM_POS_METHOD BOM_PRES_METHOD NADI_LAT NADI_LON NADI_CAT NADI_WIND NADI_PRES WELLINGTON_LAT WELLINGTON_LON WELLINGTON_WIND WELLINGTON_PRES DS824_LAT DS824_LON DS824_STAGE DS824_WIND DS824_PRES TD9636_LAT TD9636_LON TD9636_STAGE TD9636_WIND TD9636_PRES TD9635_LAT TD9635_LON TD9635_WIND TD9635_PRES TD9635_ROCI NEUMANN_LAT NEUMANN_LON NEUMANN_CLASS NEUMANN_WIND NEUMANN_PRES MLC_LAT MLC_LON MLC_CLASS MLC_WIND MLC_PRES USA_GUST BOM_GUST BOM_GUST_PER REUNION_GUST REUNION_GUST_PER USA_SEAHGT USA_SEARAD_NE USA_SEARAD_SE USA_SEARAD_SW USA_SEARAD_NW STORM_SPEED STORM_DIR
1961014S10495 1961 10 SP EA NOT_NAMED 1961-01-14 00:00:00 TS -10.0000 135.000 spur-split 236 219 ____________O_ -1 -10.0000 135.000 TC 20 1004 9 270
1961014S10495 1961 10 SI WA NOT_NAMED 1961-01-14 03:00:00 TS -10.0002 134.562 spur-split 219 208 ____________P_ -1 -10.0002 134.562 TC 22 1003 7 270
1961014S10495 1961 10 SI WA NOT_NAMED 1961-01-14 06:00:00 TS -10.0000 134.300 spur-split 208 208 ____________O_ -1 -10.0000 134.300 TC 25 1003 2 270
1961014S10495 1961 10 SI WA NOT_NAMED 1961-01-14 09:00:00 TS -9.99995 134.325 spur-split 208 208 ____________P_ -1 -9.99995 134.325 TC 25 1003 2 90
1961014S10495 1961 10 SI WA NOT_NAMED 1961-01-14 12:00:00 TS -10.0000 134.500 spur-split 215 215 ____________O_ -1 -10.0000 134.500 TC 25 1003 4 90
1961014S10495 1961 10 SI WA NOT_NAMED 1961-01-14 15:00:00 TS -9.99997 134.725 spur-split 224 224 ____________P_ -1 -9.99997 134.725 TC 25 1002 3 90
1961014S10495 1961 10 SI WA NOT_NAMED 1961-01-14 18:00:00 TS -10.0000 134.800 spur-split 229 215 ____________O_ -1 -10.0000 134.800 TC 25 1002 2 270
1961014S10495 1961 10 SI WA NOT_NAMED 1961-01-14 21:00:00 TS -10.0000 134.497 spur-split 215 204 ____________P_ -1 -10.0000 134.497 TC 27 1001 8 270
1961014S10495 1961 10 SI WA NOT_NAMED 1961-01-14 23:30:00 TS -10.0000 134.087 spur-split 204 197 ____________P_ -1 -10.0000 134.087 TC 29 1000 10 270
1961014S10495 1961 10 SI WA NOT_NAMED 1961-01-15 00:00:00 TS -10.0000 134.000 spur-split 197 169 ____________O_ -1 -10.0000 134.000 TC 30 1000 10 270
1961014S10495 1961 10 SI WA NOT_NAMED 1961-01-15 03:00:00 TS -9.99999 133.515 spur-split 169 154 ____________P_ -1 -9.99999 133.515 TC 30 1000 10 270
1961014S10495 1961 10 SI WA NOT_NAMED 1961-01-15 06:00:00 TS -10.0000 133.000 spur-split 154 136 ____________O_ -1 -10.0000 133.000 TC 30 1000 10 270
1961014S10495 1961 10 SI WA NOT_NAMED 1961-01-15 09:00:00 TS -9.99992 132.500 spur-split 136 134 ____________P_ -1 -9.99992 132.500 TC 30 999 10 270
1961014S10495 1961 10 SI WA NOT_NAMED 1961-01-15 12:00:00 TS -10.0000 132.000 spur-split 134 134 ____________O_ -1 -10.0000 132.000 TC 30 999 10 270
1961014S10495 1961 10 SI WA NOT_NAMED 1961-01-15 15:00:00 TS -9.99992 131.500 spur-split 145 145 ____________P_ -1 -9.99992 131.500 TC 32 998 10 270
1961014S10495 1961 10 SI WA NOT_NAMED 1961-01-15 18:00:00 TS -10.0000 131.000 spur-split 146 145 ____________O_ -1 -10.0000 131.000 TC 35 998 10 271
1961014S10495 1961 10 SI WA NOT_NAMED 1961-01-15 21:00:00 TS -9.97749 130.485 spur-split 145 145 ____________P_ -1 -9.97749 130.485 TC 35 998 10 271
1961014S10495 1961 10 SI WA NOT_NAMED 1961-01-15 23:30:00 TS -9.98994 130.077 spur-split 152 152 ____________P_ -1 -9.98994 130.077 TC 35 998 10 267
1961014S10495 1961 10 SI WA NOT_NAMED 1961-01-16 00:00:00 TS -10.0000 130.000 spur-split 155 152 ____________O_ -1 -10.0000 130.000 TC 35 998 9 254
1961014S10495 1961 10 SI WA NOT_NAMED 1961-01-16 03:00:00 TS -10.1274 129.593 spur-split 159 154 ____________P_ -1 -10.1274 129.593 TC 35 998 8 249
1961014S10495 1961 10 SI WA NOT_NAMED 1961-01-16 06:00:00 TS -10.3000 129.200 spur-split 164 164 ____________O_ -1 -10.3000 129.200 TC 35 998 9 248
1961014S10495 1961 10 SI WA NOT_NAMED 1961-01-16 09:00:00 TS -10.4575 128.743 spur-split 189 189 ____________P_ -1 -10.4575 128.743 TC 35 998 9 251
1961014S10495 1961 10 SI WA NOT_NAMED 1961-01-16 12:00:00 TS -10.6000 128.300 spur-split 220 220 ____________O_ -1 -10.6000 128.300 TC 35 998 8 253
1961014S10495 1961 10 SI WA NOT_NAMED 1961-01-16 15:00:00 TS -10.6999 127.935 spur-split 244 234 ____________P_ -1 -10.6999 127.935 TC 35 998 7 254
1961014S10495 1961 10 SI WA NOT_NAMED 1961-01-16 18:00:00 TS -10.8000 127.600 spur-split 234 226 ____________O_ -1 -10.8000 127.600 TC 35 998 8 251
1961014S10495 1961 10 SI WA NOT_NAMED 1961-01-16 21:00:00 TS -10.9501 127.213 spur-split 236 230 ____________P_ -1 -10.9501 127.213 TC 35 998 8 247
1961014S10495 1961 10 SI WA NOT_NAMED 1961-01-16 23:30:00 TS -11.0771 126.942 spur-split 239 239 ____________P_ -1 -11.0771 126.942 TC 35 998 7 244
1961014S10495 1961 10 SI WA NOT_NAMED 1961-01-17 00:00:00 TS -11.1000 126.900 spur-split 239 237 ____________O_ -1 -11.1000 126.900 TC 35 998 4 232
1961014S10495 1961 10 SI WA NOT_NAMED 1961-01-17 03:00:00 TS -11.2074 126.770 spur-split 248 247 ____________P_ -1 -11.2074 126.770 TC 35 997 3 225
1961014S10495 1961 10 SI WA NOT_NAMED 1961-01-17 06:00:00 TS -11.3000 126.700 spur-split 258 257 ____________O_ -1 -11.3000 126.700 TC 35 996 3 229
1961014S10495 1961 10 SI WA NOT_NAMED 1961-01-17 09:00:00 TS -11.4000 126.550 spur-split 266 258 ____________P_ -1 -11.4000 126.550 TC 37 995 4 236
1961014S10495 1961 10 SI WA NOT_NAMED 1961-01-17 12:00:00 TS -11.5000 126.400 spur-split 258 250 ____________O_ -1 -11.5000 126.400 TC 40 994 3 231
1961014S10495 1961 10 SI WA NOT_NAMED 1961-01-17 15:00:00 TS -11.6000 126.300 spur-split 254 247 ____________P_ -1 -11.6000 126.300 TC 42 993 3 225
1961014S10495 1961 10 SI WA NOT_NAMED 1961-01-17 18:00:00 TS -11.7000 126.200 spur-split 247 240 ____________O_ -1 -11.7000 126.200 TC 45 992 3 230
1961014S10495 1961 10 SI WA NOT_NAMED 1961-01-17 21:00:00 TS -11.8000 126.058 spur-split 240 234 ____________P_ -1 -11.8000 126.058 TC 45 991 4 236
1961014S10495 1961 10 SI WA NOT_NAMED 1961-01-17 23:30:00 TS -11.8833 125.926 spur-split 236 236 ____________P_ -1 -11.8833 125.926 TC 45 990 4 237
1961014S10495 1961 10 SI WA NOT_NAMED 1961-01-18 00:00:00 TS -11.9000 125.900 spur-split 236 226 ____________O_ -1 -11.9000 125.900 TC 45 990 4 234
1961014S10495 1961 10 SI WA NOT_NAMED 1961-01-18 03:00:00 TS -12.0075 125.750 spur-split 226 217 ____________P_ -1 -12.0075 125.750 TC 45 990 4 236
1961014S10495 1961 10 SI WA NOT_NAMED 1961-01-18 06:00:00 TS -12.1000 125.600 spur-split 219 219 ____________O_ -1 -12.1000 125.600 TC 45 990 3 244
1961014S10495 1961 10 SI WA NOT_NAMED 1961-01-18 09:00:00 TS -12.1500 125.450 spur-split 225 215 ____________P_ -1 -12.1500 125.450 TC 45 990 3 251
1961014S10495 1961 10 SI WA NOT_NAMED 1961-01-18 12:00:00 TS -12.2000 125.300 spur-split 219 213 ____________O_ -1 -12.2000 125.300 TC 45 990 3 243
1961014S10495 1961 10 SI WA NOT_NAMED 1961-01-18 15:00:00 TS -12.3000 125.150 spur-split 213 209 ____________P_ -1 -12.3000 125.150 TC 45 990 4 236
1961014S10495 1961 10 SI WA NOT_NAMED 1961-01-18 18:00:00 TS -12.4000 125.000 spur-split 215 215 ____________O_ -1 -12.4000 125.000 TC 45 990 3 243
1961014S10495 1961 10 SI WA NOT_NAMED 1961-01-18 21:00:00 TS -12.4500 124.850 spur-split 227 219 ____________P_ -1 -12.4500 124.850 TC 45 990 3 252
1961014S10495 1961 10 SI WA NOT_NAMED 1961-01-18 23:30:00 TS -12.4895 124.725 spur-split 223 223 ____________P_ -1 -12.4895 124.725 TC 45 990 3 252
1961014S10495 1961 10 SI WA NOT_NAMED 1961-01-19 00:00:00 TS -12.5000 124.700 spur-split 223 218 ____________O_ -1 -12.5000 124.700 TC 45 990 3 243
1961014S10495 1961 10 SI WA NOT_NAMED 1961-01-19 03:00:00 TS -12.5624 124.580 spur-split 218 215 ____________P_ -1 -12.5624 124.580 TC 45 990 4 236
1961014S10495 1961 10 SI WA NOT_NAMED 1961-01-19 06:00:00 TS -12.7000 124.400 spur-split 221 217 ____________O_ -1 -12.7000 124.400 TC 45 990 6 230
1961014S10495 1961 10 SI WA NOT_NAMED 1961-01-19 09:00:00 TS -12.9625 124.088 spur-split 214 210 ____________P_ -1 -12.9625 124.088 TC 45 990 9 229
1961014S10495 1961 10 SI WA NOT_NAMED 1961-01-19 12:00:00 TS -13.3000 123.700 spur-split 217 217 ____________O_ -1 -13.3000 123.700 TC 45 990 10 228
1961014S10495 1961 10 SI WA NOT_NAMED 1961-01-19 15:00:00 TS -13.6500 123.300 spur-split 228 228 ____________P_ -1 -13.6500 123.300 TC 45 990 11 228
1961014S10495 1961 10 SI WA NOT_NAMED 1961-01-19 18:00:00 TS -14.0000 122.900 spur-split 241 240 ____________O_ -1 -14.0000 122.900 TC 45 990 10 229
1961014S10495 1961 10 SI WA NOT_NAMED 1961-01-19 21:00:00 TS -14.2999 122.542 spur-split 248 225 ____________P_ -1 -14.2999 122.542 TC 45 990 9 229
1961014S10495 1961 10 SI WA NOT_NAMED 1961-01-20 00:00:00 TS -14.6000 122.200 spur-split 225 218 ____________O_ -1 -14.6000 122.200 TC 45 990 9 227
1961014S10495 1961 10 SI WA NOT_NAMED 1961-01-20 01:00:00 TS -14.7215 122.076 spur-split 218 205 ____________P_ -1 -14.7215 122.076 TC 45 990 10 224
1961014S10495 1961 10 SI WA NOT_NAMED 1961-01-20 03:00:00 TS -14.9725 121.828 spur-split 205 194 ____________P_ -1 -14.9725 121.828 TC 45 990 10 224
1961014S10495 1961 10 SI WA NOT_NAMED 1961-01-20 06:00:00 TS -15.3000 121.500 spur-split 201 201 ____________O_ -1 -15.3000 121.500 TC 45 990 7 227
1961014S10495 1961 10 SI WA NOT_NAMED 1961-01-20 09:00:00 TS -15.4799 121.270 spur-split 201 201 ____________P_ -1 -15.4799 121.270 TC 45 990 5 232
1961014S10495 1961 10 SI WA NOT_NAMED 1961-01-20 12:00:00 TS -15.6000 121.100 spur-split 208 208 ____________O_ -1 -15.6000 121.100 TC 45 990 4 229
1961014S10495 1961 10 SI WA NOT_NAMED 1961-01-20 15:00:00 TS -15.7500 120.950 spur-split 216 208 ____________P_ -1 -15.7500 120.950 TC 45 990 4 224
1961014S10495 1961 10 SI WA NOT_NAMED 1961-01-20 18:00:00 TS -15.9000 120.800 spur-split 208 208 ____________O_ -1 -15.9000 120.800 TC 45 990 4 228
1961014S10495 1961 10 SI WA NOT_NAMED 1961-01-20 21:00:00 TS -16.0500 120.607 spur-split 219 212 ____________P_ -1 -16.0500 120.607 TC 45 990 5 232
1961014S10495 1961 10 SI WA NOT_NAMED 1961-01-21 00:00:00 TS -16.2000 120.400 spur-split 226 226 ____________O_ -1 -16.2000 120.400 TC 45 990 5 232
1961014S10495 1961 10 SI WA NOT_NAMED 1961-01-21 01:00:00 TS -16.2473 120.341 spur-split 235 231 ____________P_ -1 -16.2473 120.341 TC 45 990 4 230
1961014S10495 1961 10 SI WA NOT_NAMED 1961-01-21 03:00:00 TS -16.3424 120.222 spur-split 240 235 ____________P_ -1 -16.3424 120.222 TC 45 990 5 232
1961014S10495 1961 10 SI WA NOT_NAMED 1961-01-21 06:00:00 TS -16.5000 120.000 spur-split 250 250 ____________O_ -1 -16.5000 120.000 TC 45 990 6 236
1961014S10495 1961 10 SI WA NOT_NAMED 1961-01-21 09:00:00 TS -16.7000 119.680 spur-split 274 274 ____________P_ -1 -16.7000 119.680 TC 50 987 8 239
1961014S10495 1961 10 SI WA NOT_NAMED 1961-01-21 12:00:00 TS -16.9000 119.300 spur-split 307 307 ____________O_ -1 -16.9000 119.300 TC 55 985 8 245
1961014S10495 1961 10 SI WA NOT_NAMED 1961-01-21 15:00:00 TS -17.0500 118.900 spur-split 346 328 ____________P_ -1 -17.0500 118.900 TC 57 982 8 249
1961014S10495 1961 10 SI WA NOT_NAMED 1961-01-21 18:00:00 TS -17.2000 118.500 spur-split 330 316 ____________O_ -1 -17.2000 118.500 TC 60 980 8 244
1961014S10495 1961 10 SI WA NOT_NAMED 1961-01-21 21:00:00 TS -17.3924 118.150 spur-split 319 306 ____________P_ -1 -17.3924 118.150 TC 65 977 8 239
1961014S10495 1961 10 SI WA NOT_NAMED 1961-01-22 00:00:00 TS -17.6000 117.800 spur-split 311 304 ____________O_ -1 -17.6000 117.800 TC 70 975 8 239
1961014S10495 1961 10 SI WA NOT_NAMED 1961-01-22 01:00:00 TS -17.6666 117.672 spur-split 304 297 ____________P_ -1 -17.6666 117.672 TC 70 974 9 242
1961014S10495 1961 10 SI WA NOT_NAMED 1961-01-22 03:00:00 TS -17.8000 117.407 spur-split 300 288 ____________P_ -1 -17.8000 117.407 TC 72 972 9 243
1961014S10495 1961 10 SI WA NOT_NAMED 1961-01-22 06:00:00 TS -18.0000 117.000 spur-split 291 268 ____________O_ -1 -18.0000 117.000 TC 75 970 9 243
1961014S10495 1961 10 SI WA NOT_NAMED 1961-01-22 09:00:00 TS -18.2076 116.570 spur-split 268 249 ____________P_ -1 -18.2076 116.570 TC 80 965 9 242
1961014S10495 1961 10 SI WA NOT_NAMED 1961-01-22 12:00:00 TS -18.4000 116.200 spur-split 251 243 ____________O_ -1 -18.4000 116.200 TC 85 960 7 239
1961014S10495 1961 10 SI WA NOT_NAMED 1961-01-22 15:00:00 TS -18.5498 115.977 spur-split 246 228 ____________P_ -1 -18.5498 115.977 TC 87 958 5 232
1961014S10495 1961 10 SI WA NOT_NAMED 1961-01-22 18:00:00 TS -18.7000 115.800 spur-split 232 226 ____________O_ -1 -18.7000 115.800 TC 90 956 5 233
1961014S10495 1961 10 SI WA NOT_NAMED 1961-01-22 21:00:00 TS -18.8701 115.528 spur-split 227 222 ____________P_ -1 -18.8701 115.528 TC 95 953 6 230
1961014S10495 1961 10 SI WA NOT_NAMED 1961-01-23 00:00:00 TS -19.1000 115.300 spur-split 222 212 ____________O_ -1 -19.1000 115.300 TC 100 951 6 218
1961014S10495 1961 10 SI WA NOT_NAMED 1961-01-23 01:00:00 TS -19.1942 115.263 spur-split 212 197 ____________P_ -1 -19.1942 115.263 TC 100 950 6 192
1961014S10495 1961 10 SI WA NOT_NAMED 1961-01-23 03:00:00 TS -19.4124 115.227 spur-split 197 161 ____________P_ -1 -19.4124 115.227 TC 100 950 7 185
1961014S10495 1961 10 SI WA NOT_NAMED 1961-01-23 06:00:00 TS -19.8000 115.200 spur-split 161 130 ____________O_ -1 -19.8000 115.200 TC 100 950 8 188
1961014S10495 1961 10 SI WA NOT_NAMED 1961-01-23 09:00:00 TS -20.2350 115.100 spur-split 130 98 ____________P_ -1 -20.2350 115.100 TC 107 943 9 192
1961014S10495 1961 10 SI WA NOT_NAMED 1961-01-23 12:00:00 TS -20.7000 115.000 spur-split 98 63 ____________O_ -1 -20.7000 115.000 TC 115 936 9 191
1961014S10495 1961 10 SI WA NOT_NAMED 1961-01-23 15:00:00 TS -21.1275 114.920 spur-split 63 11 ____________P_ -1 -21.1275 114.920 TC 120 930 10 189
1961014S10495 1961 10 SI WA NOT_NAMED 1961-01-23 18:00:00 TS -21.6800 114.840 spur-split 10 0 O___________O_ jtwc_sh SH131961 -22.0000 114.600 -1 -21.6000 114.900 TC 125 925 12 187
1961014S10495 1961 10 SI WA NOT_NAMED 1961-01-23 21:00:00 TS -22.2741 114.774 spur-split 0 0 P___________P_ SH131961 -22.4751 114.425 -1 -22.1700 114.955 TC 117 932 13 184
1961014S10495 1961 10 SI WA NOT_NAMED 1961-01-24 00:00:00 TS -22.9286 114.757 spur-split 0 0 O___________O_ jtwc_sh SH131961 -23.1000 114.300 -1 -22.8000 115.100 TC 110 940 14 183
1961014S10495 1961 10 SI WA NOT_NAMED 1961-01-24 01:00:00 TS -23.1907 114.722 spur-split 0 0 P___________P_ SH131961 -23.3652 114.278 -1 -23.0162 115.166 TC 108 941 16 177
1961014S10495 1961 10 SI WA NOT_NAMED 1961-01-24 03:00:00 TS -23.7100 114.801 spur-split 0 0 P___________P_ SH131961 -23.9624 114.275 -1 -23.4575 115.327 TC 105 945 16 169
1961014S10495 1961 10 SI WA NOT_NAMED 1961-01-24 06:00:00 TS -24.5000 115.000 spur-split 0 0 O___________O_ jtwc_sh SH131961 -24.9000 114.400 -1 -24.1000 115.600 TC 100 950 16 165
1961014S10495 1961 10 SI WA NOT_NAMED 1961-01-24 09:00:00 TS -25.1973 115.251 spur-split 0 0 P___________P_ SH131961 -25.7673 114.667 -1 -24.6274 115.836 TC 82 962 15 158
1961014S10495 1961 10 SI WA NOT_NAMED 1961-01-24 12:00:00 TS -25.8500 115.600 spur-split 0 0 O___________O_ jtwc_sh SH131961 -26.5000 115.100 -1 -25.2000 116.100 TC 65 975 15 152
1961014S10495 1961 10 SI WA NOT_NAMED 1961-01-24 15:00:00 TS -26.5197 116.034 spur-split 0 0 P___________P_ SH131961 -27.0093 115.611 -1 -26.0302 116.457 TC 57 976 15 146
1961014S10495 1961 10 SI WA NOT_NAMED 1961-01-24 18:00:00 TS -27.1000 116.550 spur-split 0 0 O___________O_ jtwc_sh SH131961 -27.4000 116.300 -1 -26.8000 116.800 TC 50 978 14 140
1961014S10495 1961 10 SI WA NOT_NAMED 1961-01-24 19:00:00 TS -27.2507 116.714 spur-split 0 0 P___________P_ SH131961 -27.5390 116.569 -1 -26.9625 116.858 TC 49 978 12 132
1961014S10495 1961 10 SI WA NOT_NAMED 1961-01-24 21:00:00 TS -27.5045 117.062 spur-split 0 0 P___________P_ SH131961 -27.8073 117.176 -1 -27.2017 116.949 TC 47 980 13 124
1961014S10495 1961 10 SI WA NOT_NAMED 1961-01-25 00:00:00 TS -27.8500 117.700 spur-split 0 0 O___________O_ jtwc_sh SH131961 -28.2000 118.200 -1 -27.5000 117.200 TC 45 982 14 121
1961014S10495 1961 10 SI WA NOT_NAMED 1961-01-25 01:00:00 TS -27.9873 117.962 spur-split 0 0 P___________P_ SH131961 -28.3358 118.552 -1 -27.6387 117.371 TC 44 982 17 119
1961014S10495 1961 10 SI WA NOT_NAMED 1961-01-25 03:00:00 TS -28.2713 118.548 spur-split 0 0 P___________P_ SH131961 -28.6073 119.285 -1 -27.9353 117.810 TC 42 984 18 118
1961014S10495 1961 10 SI WA NOT_NAMED 1961-01-25 06:00:00 TS -28.7000 119.500 spur-split 0 0 O___________O_ jtwc_sh SH131961 -29.0000 120.400 -1 -28.4000 118.600 TC 40 986 18 116
1961014S10495 1961 10 SI WA NOT_NAMED 1961-01-25 09:00:00 TS -29.0804 120.412 spur-split 0 0 P___________P_ SH131961 -29.3190 121.460 -1 -28.8419 119.364 TC 37 986 18 116
1961014S10495 1961 10 SI WA NOT_NAMED 1961-01-25 10:00:00 TS -29.2116 120.720 spur-split 0 0 P___________P_ SH131961 -29.4317 121.807 -1 -28.9915 119.633 TC 36 986 16 120
1961014S10495 1961 10 SI WA NOT_NAMED 1961-01-25 12:00:00 TS -29.4714 121.186 spur-split 0 0 O___________O_ jtwc_sh SH131961 -29.7000 122.500 -1 -29.3000 120.200 TC 35 987 15 125
1961014S10495 1961 10 SI WA NOT_NAMED 1961-01-25 15:00:00 TS -29.9339 121.904 spur-split 0 0 P___________P_ SH131961 -30.2493 123.544 -1 -29.7762 121.084 TC 35 988 16 128
1961014S10495 1961 10 SI WA NOT_NAMED 1961-01-25 18:00:00 TS -30.4200 122.600 spur-split 0 0 O___________O_ jtwc_sh SH131961 -30.9000 124.600 -1 -30.3000 122.100 TC 35 989 16 127
1961014S10495 1961 10 SI WA NOT_NAMED 1961-01-25 21:00:00 TS -30.9026 123.415 spur-split 0 0 ____________P_ SH131961 -1 -30.9026 123.415 TC 35 990 20 122
1961014S10495 1961 10 SI WA NOT_NAMED 1961-01-26 00:00:00 TS -31.5000 124.600 spur-split 0 0 ____________O_ -1 -31.5000 124.600 TC 35 991 22 122
1961014S10495 1961 10 SI WA NOT_NAMED 1961-01-26 01:00:00 TS -31.6825 124.880 spur-split 0 0 ____________P_ -1 -31.6825 124.880 TC 35 991 15 133
1961014S10495 1961 10 SI WA NOT_NAMED 1961-01-26 03:00:00 TS -32.0230 125.267 spur-split 0 0 ____________P_ -1 -32.0230 125.267 TC 35 993 12 143
1961014S10495 1961 10 SI WA NOT_NAMED 1961-01-26 06:00:00 TS -32.5000 125.600 spur-split 0 ____________O_ -1 -32.5000 125.600 TC 35 995 11 149

デジタル台風データ・検索

IBTrACS Databaseについて

本データベースは、米国NOAAが公開する1842年以降の世界の熱帯低気圧のベストトラックデータアーカイブInternational Best Track Archive for Climate Stewardship (IBTrACS)を、ウェブで閲覧しやすい形式に変換したものです。

最終更新日:2021-11-26